sensor_id;sensor_type;location;lat;lon;timestamp;P1;durP1;ratioP1;P2;durP2;ratioP2
22332;SDS011;11334;36.986;-121.936;2023-03-01T00:00:40;7.90;;;1.75;;
22332;SDS011;11334;36.986;-121.936;2023-03-01T00:03:06;7.55;;;1.70;;
22332;SDS011;11334;36.986;-121.936;2023-03-01T00:05:33;9.13;;;1.92;;
22332;SDS011;11334;36.986;-121.936;2023-03-01T00:07:59;7.97;;;1.95;;
22332;SDS011;11334;36.986;-121.936;2023-03-01T00:10:25;8.85;;;2.20;;
22332;SDS011;11334;36.986;-121.936;2023-03-01T00:12:52;6.28;;;1.90;;
22332;SDS011;11334;36.986;-121.936;2023-03-01T00:15:18;11.18;;;2.15;;
22332;SDS011;11334;36.986;-121.936;2023-03-01T00:17:44;11.20;;;2.25;;
22332;SDS011;11334;36.986;-121.936;2023-03-01T00:20:11;11.52;;;2.15;;
22332;SDS011;11334;36.986;-121.936;2023-03-01T00:22:37;8.05;;;2.33;;
22332;SDS011;11334;36.986;-121.936;2023-03-01T00:25:03;10.10;;;2.40;;
22332;SDS011;11334;36.986;-121.936;2023-03-01T00:27:30;15.13;;;2.72;;
22332;SDS011;11334;36.986;-121.936;2023-03-01T00:29:56;8.30;;;1.90;;
22332;SDS011;11334;36.986;-121.936;2023-03-01T00:32:22;12.95;;;2.95;;
22332;SDS011;11334;36.986;-121.936;2023-03-01T00:34:49;10.77;;;2.72;;
22332;SDS011;11334;36.986;-121.936;2023-03-01T00:37:22;11.90;;;2.08;;
22332;SDS011;11334;36.986;-121.936;2023-03-01T00:39:49;13.02;;;2.58;;
22332;SDS011;11334;36.986;-121.936;2023-03-01T00:42:16;10.18;;;2.83;;
22332;SDS011;11334;36.986;-121.936;2023-03-01T00:44:42;9.75;;;2.20;;
22332;SDS011;11334;36.986;-121.936;2023-03-01T00:47:09;11.38;;;2.33;;
22332;SDS011;11334;36.986;-121.936;2023-03-01T00:49:35;10.73;;;2.45;;
22332;SDS011;11334;36.986;-121.936;2023-03-01T00:52:01;9.80;;;1.95;;
22332;SDS011;11334;36.986;-121.936;2023-03-01T00:54:27;10.93;;;3.20;;
22332;SDS011;11334;36.986;-121.936;2023-03-01T00:56:54;14.75;;;3.08;;
22332;SDS011;11334;36.986;-121.936;2023-03-01T00:59:20;10.52;;;2.13;;
22332;SDS011;11334;36.986;-121.936;2023-03-01T01:01:46;10.38;;;2.28;;
22332;SDS011;11334;36.986;-121.936;2023-03-01T01:04:12;13.20;;;2.90;;
22332;SDS011;11334;36.986;-121.936;2023-03-01T01:06:40;11.93;;;2.58;;
22332;SDS011;11334;36.986;-121.936;2023-03-01T01:09:11;14.55;;;3.13;;
22332;SDS011;11334;36.986;-121.936;2023-03-01T01:11:45;12.10;;;2.80;;
22332;SDS011;11334;36.986;-121.936;2023-03-01T01:14:13;7.30;;;2.17;;
22332;SDS011;11334;36.986;-121.936;2023-03-01T01:16:39;5.43;;;1.77;;
22332;SDS011;11334;36.986;-121.936;2023-03-01T01:19:06;5.10;;;1.60;;
22332;SDS011;11334;36.986;-121.936;2023-03-01T01:21:32;13.93;;;1.77;;
22332;SDS011;11334;36.986;-121.936;2023-03-01T01:23:59;8.57;;;1.50;;
22332;SDS011;11334;36.986;-121.936;2023-03-01T01:26:26;8.95;;;2.40;;
22332;SDS011;11334;36.986;-121.936;2023-03-01T01:28:55;7.22;;;2.15;;
22332;SDS011;11334;36.986;-121.936;2023-03-01T01:31:22;12.45;;;1.92;;
22332;SDS011;11334;36.986;-121.936;2023-03-01T01:33:49;8.50;;;2.03;;
22332;SDS011;11334;36.986;-121.936;2023-03-01T01:36:16;13.60;;;3.05;;
22332;SDS011;11334;36.986;-121.936;2023-03-01T01:38:42;15.57;;;2.13;;
22332;SDS011;11334;36.986;-121.936;2023-03-01T01:41:10;8.38;;;2.15;;
22332;SDS011;11334;36.986;-121.936;2023-03-01T01:43:47;11.02;;;2.10;;
22332;SDS011;11334;36.986;-121.936;2023-03-01T01:46:34;9.85;;;2.25;;
22332;SDS011;11334;36.986;-121.936;2023-03-01T01:52:02;12.65;;;2.40;;
22332;SDS011;11334;36.986;-121.936;2023-03-01T01:57:18;9.13;;;1.92;;
22332;SDS011;11334;36.986;-121.936;2023-03-01T01:59:50;7.78;;;2.33;;
22332;SDS011;11334;36.986;-121.936;2023-03-01T02:02:20;8.68;;;2.40;;
22332;SDS011;11334;36.986;-121.936;2023-03-01T02:04:47;12.80;;;2.40;;
22332;SDS011;11334;36.986;-121.936;2023-03-01T02:07:19;10.82;;;2.78;;
22332;SDS011;11334;36.986;-121.936;2023-03-01T02:09:48;7.88;;;2.03;;
22332;SDS011;11334;36.986;-121.936;2023-03-01T02:12:18;11.15;;;3.08;;
22332;SDS011;11334;36.986;-121.936;2023-03-01T02:14:47;10.73;;;3.03;;
22332;SDS011;11334;36.986;-121.936;2023-03-01T02:17:14;15.68;;;2.85;;
22332;SDS011;11334;36.986;-121.936;2023-03-01T02:22:33;9.48;;;2.70;;
22332;SDS011;11334;36.986;-121.936;2023-03-01T02:25:23;7.43;;;2.22;;
22332;SDS011;11334;36.986;-121.936;2023-03-01T02:28:34;8.07;;;2.35;;
22332;SDS011;11334;36.986;-121.936;2023-03-01T02:31:03;11.68;;;2.45;;
22332;SDS011;11334;36.986;-121.936;2023-03-01T02:33:49;9.25;;;2.72;;
22332;SDS011;11334;36.986;-121.936;2023-03-01T02:36:18;15.23;;;3.50;;
22332;SDS011;11334;36.986;-121.936;2023-03-01T02:38:49;11.23;;;3.08;;
22332;SDS011;11334;36.986;-121.936;2023-03-01T02:41:19;16.95;;;3.08;;
22332;SDS011;11334;36.986;-121.936;2023-03-01T02:43:46;13.95;;;2.90;;
22332;SDS011;11334;36.986;-121.936;2023-03-01T02:46:14;10.57;;;2.88;;
22332;SDS011;11334;36.986;-121.936;2023-03-01T02:48:44;10.82;;;3.72;;
22332;SDS011;11334;36.986;-121.936;2023-03-01T02:56:57;14.20;;;4.28;;
22332;SDS011;11334;36.986;-121.936;2023-03-01T02:59:24;11.75;;;4.20;;
22332;SDS011;11334;36.986;-121.936;2023-03-01T03:01:56;20.73;;;8.90;;
22332;SDS011;11334;36.986;-121.936;2023-03-01T03:04:22;18.75;;;8.02;;
22332;SDS011;11334;36.986;-121.936;2023-03-01T03:06:49;13.60;;;5.30;;
22332;SDS011;11334;36.986;-121.936;2023-03-01T03:09:16;16.35;;;4.25;;
22332;SDS011;11334;36.986;-121.936;2023-03-01T03:11:44;13.93;;;4.07;;
22332;SDS011;11334;36.986;-121.936;2023-03-01T03:14:12;13.57;;;2.63;;
22332;SDS011;11334;36.986;-121.936;2023-03-01T03:16:42;10.60;;;2.17;;
22332;SDS011;11334;36.986;-121.936;2023-03-01T03:19:14;11.77;;;2.88;;
22332;SDS011;11334;36.986;-121.936;2023-03-01T03:21:41;7.10;;;2.20;;
22332;SDS011;11334;36.986;-121.936;2023-03-01T03:24:08;7.72;;;1.95;;
22332;SDS011;11334;36.986;-121.936;2023-03-01T03:26:34;5.30;;;1.30;;
22332;SDS011;11334;36.986;-121.936;2023-03-01T03:29:01;4.30;;;1.75;;
22332;SDS011;11334;36.986;-121.936;2023-03-01T03:31:27;10.35;;;2.20;;
22332;SDS011;11334;36.986;-121.936;2023-03-01T03:33:54;3.83;;;1.10;;
22332;SDS011;11334;36.986;-121.936;2023-03-01T03:36:23;3.20;;;1.10;;
22332;SDS011;11334;36.986;-121.936;2023-03-01T03:38:50;1.75;;;0.90;;
22332;SDS011;11334;36.986;-121.936;2023-03-01T03:41:16;3.60;;;1.08;;
22332;SDS011;11334;36.986;-121.936;2023-03-01T03:43:43;3.38;;;1.10;;
22332;SDS011;11334;36.986;-121.936;2023-03-01T03:46:10;1.48;;;1.08;;
22332;SDS011;11334;36.986;-121.936;2023-03-01T03:48:38;3.47;;;0.93;;
22332;SDS011;11334;36.986;-121.936;2023-03-01T03:51:09;3.22;;;1.05;;
22332;SDS011;11334;36.986;-121.936;2023-03-01T03:53:37;2.00;;;0.90;;
22332;SDS011;11334;36.986;-121.936;2023-03-01T03:56:03;0.95;;;0.85;;
22332;SDS011;11334;36.986;-121.936;2023-03-01T03:58:30;3.70;;;1.10;;
22332;SDS011;11334;36.986;-121.936;2023-03-01T04:00:56;1.50;;;0.98;;
22332;SDS011;11334;36.986;-121.936;2023-03-01T04:03:24;1.77;;;0.68;;
22332;SDS011;11334;36.986;-121.936;2023-03-01T04:05:51;1.92;;;0.95;;
22332;SDS011;11334;36.986;-121.936;2023-03-01T04:08:19;1.45;;;0.77;;
22332;SDS011;11334;36.986;-121.936;2023-03-01T04:10:47;1.00;;;0.75;;
22332;SDS011;11334;36.986;-121.936;2023-03-01T04:13:16;1.73;;;0.93;;
22332;SDS011;11334;36.986;-121.936;2023-03-01T04:15:51;0.77;;;0.65;;
22332;SDS011;11334;36.986;-121.936;2023-03-01T04:18:19;3.00;;;0.90;;
22332;SDS011;11334;36.986;-121.936;2023-03-01T04:20:46;1.52;;;0.88;;
22332;SDS011;11334;36.986;-121.936;2023-03-01T04:23:14;1.95;;;0.95;;
22332;SDS011;11334;36.986;-121.936;2023-03-01T04:25:46;1.65;;;1.15;;
22332;SDS011;11334;36.986;-121.936;2023-03-01T04:28:24;2.30;;;1.20;;
22332;SDS011;11334;36.986;-121.936;2023-03-01T04:30:52;4.38;;;1.52;;
22332;SDS011;11334;36.986;-121.936;2023-03-01T04:33:20;1.48;;;1.00;;
22332;SDS011;11334;36.986;-121.936;2023-03-01T04:35:47;1.65;;;1.30;;
22332;SDS011;11334;36.986;-121.936;2023-03-01T04:38:17;2.58;;;1.55;;
22332;SDS011;11334;36.986;-121.936;2023-03-01T04:40:44;2.75;;;1.42;;
22332;SDS011;11334;36.986;-121.936;2023-03-01T04:43:11;3.13;;;1.45;;
22332;SDS011;11334;36.986;-121.936;2023-03-01T04:45:40;1.42;;;1.30;;
22332;SDS011;11334;36.986;-121.936;2023-03-01T04:48:07;1.58;;;1.48;;
22332;SDS011;11334;36.986;-121.936;2023-03-01T04:50:33;3.55;;;1.40;;
22332;SDS011;11334;36.986;-121.936;2023-03-01T04:53:00;2.88;;;1.75;;
22332;SDS011;11334;36.986;-121.936;2023-03-01T04:55:27;3.58;;;1.60;;
22332;SDS011;11334;36.986;-121.936;2023-03-01T04:57:54;3.35;;;1.90;;
22332;SDS011;11334;36.986;-121.936;2023-03-01T05:00:21;2.72;;;1.70;;
22332;SDS011;11334;36.986;-121.936;2023-03-01T05:02:53;2.35;;;1.60;;
22332;SDS011;11334;36.986;-121.936;2023-03-01T05:05:26;2.25;;;1.58;;
22332;SDS011;11334;36.986;-121.936;2023-03-01T05:08:03;3.20;;;1.92;;
22332;SDS011;11334;36.986;-121.936;2023-03-01T05:10:32;2.40;;;1.90;;
22332;SDS011;11334;36.986;-121.936;2023-03-01T05:13:01;4.80;;;2.28;;
22332;SDS011;11334;36.986;-121.936;2023-03-01T05:15:29;1.80;;;1.55;;
22332;SDS011;11334;36.986;-121.936;2023-03-01T05:17:58;4.07;;;2.17;;
22332;SDS011;11334;36.986;-121.936;2023-03-01T05:20:29;4.35;;;2.40;;
22332;SDS011;11334;36.986;-121.936;2023-03-01T05:22:56;3.78;;;2.10;;
22332;SDS011;11334;36.986;-121.936;2023-03-01T05:25:24;3.75;;;2.67;;
22332;SDS011;11334;36.986;-121.936;2023-03-01T05:27:51;7.35;;;2.67;;
22332;SDS011;11334;36.986;-121.936;2023-03-01T05:30:17;3.00;;;2.47;;
22332;SDS011;11334;36.986;-121.936;2023-03-01T05:32:45;5.70;;;2.75;;
22332;SDS011;11334;36.986;-121.936;2023-03-01T05:35:13;5.68;;;2.88;;
22332;SDS011;11334;36.986;-121.936;2023-03-01T05:37:41;2.33;;;2.05;;
22332;SDS011;11334;36.986;-121.936;2023-03-01T05:40:10;5.20;;;2.30;;
22332;SDS011;11334;36.986;-121.936;2023-03-01T05:42:44;4.30;;;2.00;;
22332;SDS011;11334;36.986;-121.936;2023-03-01T05:45:15;3.05;;;1.75;;
22332;SDS011;11334;36.986;-121.936;2023-03-01T05:47:43;2.92;;;1.50;;
22332;SDS011;11334;36.986;-121.936;2023-03-01T05:50:20;4.03;;;1.50;;
22332;SDS011;11334;36.986;-121.936;2023-03-01T05:53:01;2.78;;;1.52;;
22332;SDS011;11334;36.986;-121.936;2023-03-01T05:55:33;2.42;;;1.08;;
22332;SDS011;11334;36.986;-121.936;2023-03-01T05:58:01;1.63;;;1.17;;
22332;SDS011;11334;36.986;-121.936;2023-03-01T06:00:30;2.78;;;0.98;;
22332;SDS011;11334;36.986;-121.936;2023-03-01T06:02:56;1.55;;;1.00;;
22332;SDS011;11334;36.986;-121.936;2023-03-01T06:05:24;2.88;;;1.10;;
22332;SDS011;11334;36.986;-121.936;2023-03-01T06:07:50;1.80;;;0.88;;
22332;SDS011;11334;36.986;-121.936;2023-03-01T06:10:19;1.88;;;1.05;;
22332;SDS011;11334;36.986;-121.936;2023-03-01T06:12:47;1.50;;;0.90;;
22332;SDS011;11334;36.986;-121.936;2023-03-01T06:15:14;0.70;;;0.70;;
22332;SDS011;11334;36.986;-121.936;2023-03-01T06:17:45;0.55;;;0.55;;
22332;SDS011;11334;36.986;-121.936;2023-03-01T06:20:19;0.75;;;0.32;;
22332;SDS011;11334;36.986;-121.936;2023-03-01T06:22:48;0.47;;;0.40;;
22332;SDS011;11334;36.986;-121.936;2023-03-01T06:25:15;0.50;;;0.43;;
22332;SDS011;11334;36.986;-121.936;2023-03-01T06:27:44;0.30;;;0.15;;
22332;SDS011;11334;36.986;-121.936;2023-03-01T06:30:11;0.10;;;0.10;;
22332;SDS011;11334;36.986;-121.936;2023-03-01T06:32:39;0.35;;;0.10;;
22332;SDS011;11334;36.986;-121.936;2023-03-01T06:35:07;0.60;;;0.20;;
22332;SDS011;11334;36.986;-121.936;2023-03-01T06:37:38;1.13;;;0.10;;
22332;SDS011;11334;36.986;-121.936;2023-03-01T06:40:05;0.63;;;0.30;;
22332;SDS011;11334;36.986;-121.936;2023-03-01T06:42:36;0.30;;;0.20;;
22332;SDS011;11334;36.986;-121.936;2023-03-01T06:45:04;0.55;;;0.45;;
22332;SDS011;11334;36.986;-121.936;2023-03-01T06:47:32;0.75;;;0.35;;
22332;SDS011;11334;36.986;-121.936;2023-03-01T06:49:59;0.80;;;0.20;;
22332;SDS011;11334;36.986;-121.936;2023-03-01T06:52:26;0.65;;;0.35;;
22332;SDS011;11334;36.986;-121.936;2023-03-01T06:54:52;1.08;;;0.50;;
22332;SDS011;11334;36.986;-121.936;2023-03-01T06:57:18;0.65;;;0.40;;
22332;SDS011;11334;36.986;-121.936;2023-03-01T06:59:47;0.65;;;0.40;;
22332;SDS011;11334;36.986;-121.936;2023-03-01T07:02:14;0.90;;;0.43;;
22332;SDS011;11334;36.986;-121.936;2023-03-01T07:04:41;1.23;;;0.60;;
22332;SDS011;11334;36.986;-121.936;2023-03-01T07:07:07;1.02;;;0.50;;
22332;SDS011;11334;36.986;-121.936;2023-03-01T07:09:34;1.13;;;0.50;;
22332;SDS011;11334;36.986;-121.936;2023-03-01T07:12:00;1.38;;;0.47;;
22332;SDS011;11334;36.986;-121.936;2023-03-01T07:14:27;0.75;;;0.50;;
22332;SDS011;11334;36.986;-121.936;2023-03-01T07:16:53;3.22;;;0.52;;
22332;SDS011;11334;36.986;-121.936;2023-03-01T07:19:20;0.73;;;0.32;;
22332;SDS011;11334;36.986;-121.936;2023-03-01T07:21:47;1.95;;;0.80;;
22332;SDS011;11334;36.986;-121.936;2023-03-01T07:24:14;1.05;;;0.50;;
22332;SDS011;11334;36.986;-121.936;2023-03-01T07:26:40;2.97;;;0.70;;
22332;SDS011;11334;36.986;-121.936;2023-03-01T07:29:07;1.77;;;0.50;;
22332;SDS011;11334;36.986;-121.936;2023-03-01T07:31:35;0.73;;;0.40;;
22332;SDS011;11334;36.986;-121.936;2023-03-01T07:34:02;3.17;;;0.50;;
22332;SDS011;11334;36.986;-121.936;2023-03-01T07:36:28;1.98;;;0.77;;
22332;SDS011;11334;36.986;-121.936;2023-03-01T07:38:54;0.40;;;0.40;;
22332;SDS011;11334;36.986;-121.936;2023-03-01T07:41:21;1.58;;;0.55;;
22332;SDS011;11334;36.986;-121.936;2023-03-01T07:43:47;0.98;;;0.40;;
22332;SDS011;11334;36.986;-121.936;2023-03-01T07:46:13;2.13;;;0.73;;
22332;SDS011;11334;36.986;-121.936;2023-03-01T07:48:40;2.42;;;0.80;;
22332;SDS011;11334;36.986;-121.936;2023-03-01T07:51:07;1.92;;;0.70;;
22332;SDS011;11334;36.986;-121.936;2023-03-01T07:53:33;3.10;;;0.60;;
22332;SDS011;11334;36.986;-121.936;2023-03-01T07:56:03;2.05;;;0.50;;
22332;SDS011;11334;36.986;-121.936;2023-03-01T07:58:33;2.15;;;0.60;;
22332;SDS011;11334;36.986;-121.936;2023-03-01T08:01:01;2.50;;;0.60;;
22332;SDS011;11334;36.986;-121.936;2023-03-01T08:03:29;1.38;;;0.70;;
22332;SDS011;11334;36.986;-121.936;2023-03-01T08:05:55;1.35;;;0.52;;
22332;SDS011;11334;36.986;-121.936;2023-03-01T08:08:21;0.80;;;0.60;;
22332;SDS011;11334;36.986;-121.936;2023-03-01T08:10:47;0.80;;;0.55;;
22332;SDS011;11334;36.986;-121.936;2023-03-01T08:13:14;1.00;;;0.50;;
22332;SDS011;11334;36.986;-121.936;2023-03-01T08:15:40;1.20;;;0.57;;
22332;SDS011;11334;36.986;-121.936;2023-03-01T08:18:06;0.50;;;0.50;;
22332;SDS011;11334;36.986;-121.936;2023-03-01T08:20:32;1.75;;;0.88;;
22332;SDS011;11334;36.986;-121.936;2023-03-01T08:22:58;1.77;;;0.70;;
22332;SDS011;11334;36.986;-121.936;2023-03-01T08:25:25;1.38;;;0.65;;
22332;SDS011;11334;36.986;-121.936;2023-03-01T08:27:51;0.55;;;0.30;;
22332;SDS011;11334;36.986;-121.936;2023-03-01T08:30:17;1.10;;;0.77;;
22332;SDS011;11334;36.986;-121.936;2023-03-01T08:32:43;1.40;;;0.50;;
22332;SDS011;11334;36.986;-121.936;2023-03-01T08:35:10;1.52;;;0.50;;
22332;SDS011;11334;36.986;-121.936;2023-03-01T08:37:36;2.55;;;0.73;;
22332;SDS011;11334;36.986;-121.936;2023-03-01T08:40:02;2.88;;;0.63;;
22332;SDS011;11334;36.986;-121.936;2023-03-01T08:42:33;0.40;;;0.40;;
22332;SDS011;11334;36.986;-121.936;2023-03-01T08:44:59;1.73;;;0.65;;
22332;SDS011;11334;36.986;-121.936;2023-03-01T08:47:25;2.95;;;0.80;;
22332;SDS011;11334;36.986;-121.936;2023-03-01T08:49:51;3.85;;;1.00;;
22332;SDS011;11334;36.986;-121.936;2023-03-01T08:52:19;3.55;;;0.80;;
22332;SDS011;11334;36.986;-121.936;2023-03-01T08:54:48;2.17;;;0.93;;
22332;SDS011;11334;36.986;-121.936;2023-03-01T08:57:15;1.05;;;0.68;;
22332;SDS011;11334;36.986;-121.936;2023-03-01T08:59:44;3.05;;;0.90;;
22332;SDS011;11334;36.986;-121.936;2023-03-01T09:02:12;2.17;;;0.90;;
22332;SDS011;11334;36.986;-121.936;2023-03-01T09:04:40;2.72;;;1.10;;
22332;SDS011;11334;36.986;-121.936;2023-03-01T09:07:07;4.43;;;0.95;;
22332;SDS011;11334;36.986;-121.936;2023-03-01T09:09:34;2.67;;;1.52;;
22332;SDS011;11334;36.986;-121.936;2023-03-01T09:12:01;3.78;;;0.47;;
22332;SDS011;11334;36.986;-121.936;2023-03-01T09:14:27;1.30;;;0.60;;
22332;SDS011;11334;36.986;-121.936;2023-03-01T09:16:54;3.25;;;0.68;;
22332;SDS011;11334;36.986;-121.936;2023-03-01T09:19:20;3.60;;;0.95;;
22332;SDS011;11334;36.986;-121.936;2023-03-01T09:21:46;6.70;;;0.50;;
22332;SDS011;11334;36.986;-121.936;2023-03-01T09:24:22;1.08;;;0.68;;
22332;SDS011;11334;36.986;-121.936;2023-03-01T09:26:49;1.77;;;0.60;;
22332;SDS011;11334;36.986;-121.936;2023-03-01T09:29:18;7.43;;;0.80;;
22332;SDS011;11334;36.986;-121.936;2023-03-01T09:31:44;3.08;;;0.65;;
22332;SDS011;11334;36.986;-121.936;2023-03-01T09:34:10;2.35;;;0.63;;
22332;SDS011;11334;36.986;-121.936;2023-03-01T09:36:37;1.48;;;0.68;;
22332;SDS011;11334;36.986;-121.936;2023-03-01T09:39:04;1.73;;;0.60;;
22332;SDS011;11334;36.986;-121.936;2023-03-01T09:47:11;4.07;;;0.63;;
22332;SDS011;11334;36.986;-121.936;2023-03-01T09:49:42;1.27;;;0.50;;
22332;SDS011;11334;36.986;-121.936;2023-03-01T09:55:08;0.70;;;0.47;;
22332;SDS011;11334;36.986;-121.936;2023-03-01T10:00:39;2.22;;;0.70;;
22332;SDS011;11334;36.986;-121.936;2023-03-01T10:03:12;3.47;;;0.70;;
22332;SDS011;11334;36.986;-121.936;2023-03-01T10:06:04;2.40;;;0.75;;
22332;SDS011;11334;36.986;-121.936;2023-03-01T10:08:50;2.47;;;1.20;;
22332;SDS011;11334;36.986;-121.936;2023-03-01T10:11:23;2.25;;;0.55;;
22332;SDS011;11334;36.986;-121.936;2023-03-01T10:17:05;2.70;;;0.80;;
22332;SDS011;11334;36.986;-121.936;2023-03-01T10:19:45;2.90;;;0.70;;
22332;SDS011;11334;36.986;-121.936;2023-03-01T10:22:20;2.17;;;0.80;;
22332;SDS011;11334;36.986;-121.936;2023-03-01T10:24:50;1.90;;;0.93;;
22332;SDS011;11334;36.986;-121.936;2023-03-01T10:30:34;6.70;;;1.35;;
22332;SDS011;11334;36.986;-121.936;2023-03-01T10:36:01;1.42;;;1.10;;
22332;SDS011;11334;36.986;-121.936;2023-03-01T10:38:27;2.83;;;0.85;;
22332;SDS011;11334;36.986;-121.936;2023-03-01T10:41:04;1.30;;;0.55;;
22332;SDS011;11334;36.986;-121.936;2023-03-01T10:43:40;1.00;;;0.73;;
22332;SDS011;11334;36.986;-121.936;2023-03-01T10:51:48;2.45;;;0.77;;
22332;SDS011;11334;36.986;-121.936;2023-03-01T10:56:50;3.15;;;0.68;;
22332;SDS011;11334;36.986;-121.936;2023-03-01T11:10:32;3.15;;;1.30;;
22332;SDS011;11334;36.986;-121.936;2023-03-01T11:13:32;0.88;;;0.45;;
22332;SDS011;11334;36.986;-121.936;2023-03-01T11:16:02;1.73;;;0.50;;
22332;SDS011;11334;36.986;-121.936;2023-03-01T11:18:32;2.60;;;0.82;;
22332;SDS011;11334;36.986;-121.936;2023-03-01T11:20:59;3.70;;;0.80;;
22332;SDS011;11334;36.986;-121.936;2023-03-01T11:23:28;2.30;;;0.68;;
22332;SDS011;11334;36.986;-121.936;2023-03-01T11:25:57;1.25;;;0.70;;
22332;SDS011;11334;36.986;-121.936;2023-03-01T11:28:28;3.20;;;0.80;;
22332;SDS011;11334;36.986;-121.936;2023-03-01T11:31:08;3.28;;;1.02;;
22332;SDS011;11334;36.986;-121.936;2023-03-01T11:39:12;2.38;;;0.80;;
22332;SDS011;11334;36.986;-121.936;2023-03-01T11:41:57;2.58;;;0.82;;
22332;SDS011;11334;36.986;-121.936;2023-03-01T11:44:44;6.13;;;0.90;;
22332;SDS011;11334;36.986;-121.936;2023-03-01T11:55:36;2.88;;;1.13;;
22332;SDS011;11334;36.986;-121.936;2023-03-01T12:00:57;3.05;;;0.90;;
22332;SDS011;11334;36.986;-121.936;2023-03-01T12:03:42;2.30;;;1.08;;
22332;SDS011;11334;36.986;-121.936;2023-03-01T12:28:32;5.95;;;1.02;;
22332;SDS011;11334;36.986;-121.936;2023-03-01T12:39:55;3.80;;;1.08;;
22332;SDS011;11334;36.986;-121.936;2023-03-01T12:48:24;3.75;;;0.90;;
22332;SDS011;11334;36.986;-121.936;2023-03-01T12:51:08;3.03;;;0.85;;
22332;SDS011;11334;36.986;-121.936;2023-03-01T12:53:40;4.95;;;1.00;;
22332;SDS011;11334;36.986;-121.936;2023-03-01T12:56:23;6.18;;;0.98;;
22332;SDS011;11334;36.986;-121.936;2023-03-01T13:12:03;4.18;;;0.95;;
22332;SDS011;11334;36.986;-121.936;2023-03-01T13:16:58;10.13;;;1.60;;
22332;SDS011;11334;36.986;-121.936;2023-03-01T13:19:25;5.18;;;1.40;;
22332;SDS011;11334;36.986;-121.936;2023-03-01T13:21:57;1.70;;;0.80;;
22332;SDS011;11334;36.986;-121.936;2023-03-01T13:29:49;4.97;;;1.05;;
22332;SDS011;11334;36.986;-121.936;2023-03-01T13:32:21;5.43;;;1.30;;
22332;SDS011;11334;36.986;-121.936;2023-03-01T13:34:51;5.20;;;1.20;;
22332;SDS011;11334;36.986;-121.936;2023-03-01T13:37:40;4.28;;;1.13;;
22332;SDS011;11334;36.986;-121.936;2023-03-01T13:40:56;7.20;;;1.23;;
22332;SDS011;11334;36.986;-121.936;2023-03-01T13:42:55;1.90;;;1.20;;
22332;SDS011;11334;36.986;-121.936;2023-03-01T13:45:41;3.10;;;1.00;;
22332;SDS011;11334;36.986;-121.936;2023-03-01T13:48:10;3.30;;;1.92;;
22332;SDS011;11334;36.986;-121.936;2023-03-01T13:50:46;2.35;;;0.68;;
22332;SDS011;11334;36.986;-121.936;2023-03-01T13:53:20;7.43;;;2.28;;
22332;SDS011;11334;36.986;-121.936;2023-03-01T13:55:55;4.82;;;1.10;;
22332;SDS011;11334;36.986;-121.936;2023-03-01T13:58:31;2.22;;;0.80;;
22332;SDS011;11334;36.986;-121.936;2023-03-01T14:01:22;4.32;;;1.13;;
22332;SDS011;11334;36.986;-121.936;2023-03-01T14:03:54;3.22;;;1.00;;
22332;SDS011;11334;36.986;-121.936;2023-03-01T14:06:23;7.20;;;1.23;;
22332;SDS011;11334;36.986;-121.936;2023-03-01T14:18:07;5.30;;;0.70;;
22332;SDS011;11334;36.986;-121.936;2023-03-01T14:21:08;2.35;;;0.70;;
22332;SDS011;11334;36.986;-121.936;2023-03-01T14:23:34;3.65;;;1.45;;
22332;SDS011;11334;36.986;-121.936;2023-03-01T14:26:07;8.60;;;1.15;;
22332;SDS011;11334;36.986;-121.936;2023-03-01T14:28:36;3.58;;;0.80;;
22332;SDS011;11334;36.986;-121.936;2023-03-01T14:31:30;4.65;;;1.08;;
22332;SDS011;11334;36.986;-121.936;2023-03-01T14:34:00;4.15;;;0.80;;
22332;SDS011;11334;36.986;-121.936;2023-03-01T14:36:27;2.08;;;0.60;;
22332;SDS011;11334;36.986;-121.936;2023-03-01T14:38:56;1.67;;;0.82;;
22332;SDS011;11334;36.986;-121.936;2023-03-01T14:41:31;2.15;;;0.75;;
22332;SDS011;11334;36.986;-121.936;2023-03-01T14:44:02;1.20;;;0.50;;
22332;SDS011;11334;36.986;-121.936;2023-03-01T14:46:35;0.63;;;0.60;;
22332;SDS011;11334;36.986;-121.936;2023-03-01T14:51:39;2.80;;;0.70;;
22332;SDS011;11334;36.986;-121.936;2023-03-01T14:54:27;2.30;;;0.80;;
22332;SDS011;11334;36.986;-121.936;2023-03-01T14:57:06;2.70;;;0.70;;
22332;SDS011;11334;36.986;-121.936;2023-03-01T14:59:41;5.82;;;0.73;;
22332;SDS011;11334;36.986;-121.936;2023-03-01T15:02:11;5.70;;;0.90;;
22332;SDS011;11334;36.986;-121.936;2023-03-01T15:04:43;4.47;;;0.77;;
22332;SDS011;11334;36.986;-121.936;2023-03-01T15:07:13;4.28;;;1.13;;
22332;SDS011;11334;36.986;-121.936;2023-03-01T15:09:39;7.28;;;0.93;;
22332;SDS011;11334;36.986;-121.936;2023-03-01T15:14:55;3.15;;;0.82;;
22332;SDS011;11334;36.986;-121.936;2023-03-01T15:17:35;1.88;;;0.80;;
22332;SDS011;11334;36.986;-121.936;2023-03-01T15:20:05;4.18;;;1.10;;
22332;SDS011;11334;36.986;-121.936;2023-03-01T15:22:45;3.28;;;0.68;;
22332;SDS011;11334;36.986;-121.936;2023-03-01T15:25:15;3.33;;;0.93;;
22332;SDS011;11334;36.986;-121.936;2023-03-01T15:27:47;1.17;;;0.60;;
22332;SDS011;11334;36.986;-121.936;2023-03-01T15:30:22;1.13;;;0.50;;
22332;SDS011;11334;36.986;-121.936;2023-03-01T15:35:50;1.38;;;0.52;;
22332;SDS011;11334;36.986;-121.936;2023-03-01T15:40:50;4.00;;;0.60;;
22332;SDS011;11334;36.986;-121.936;2023-03-01T15:46:11;4.78;;;0.68;;
22332;SDS011;11334;36.986;-121.936;2023-03-01T15:48:48;1.80;;;0.80;;
22332;SDS011;11334;36.986;-121.936;2023-03-01T15:51:17;3.40;;;0.98;;
22332;SDS011;11334;36.986;-121.936;2023-03-01T15:53:55;2.67;;;1.00;;
22332;SDS011;11334;36.986;-121.936;2023-03-01T15:56:23;1.95;;;0.75;;
22332;SDS011;11334;36.986;-121.936;2023-03-01T15:58:50;2.78;;;0.88;;
22332;SDS011;11334;36.986;-121.936;2023-03-01T16:01:16;2.40;;;0.60;;
22332;SDS011;11334;36.986;-121.936;2023-03-01T16:03:43;1.65;;;0.98;;
22332;SDS011;11334;36.986;-121.936;2023-03-01T16:06:10;3.20;;;1.13;;
22332;SDS011;11334;36.986;-121.936;2023-03-01T16:08:37;4.47;;;1.10;;
22332;SDS011;11334;36.986;-121.936;2023-03-01T16:11:04;1.08;;;0.68;;
22332;SDS011;11334;36.986;-121.936;2023-03-01T16:13:34;6.78;;;1.50;;
22332;SDS011;11334;36.986;-121.936;2023-03-01T16:16:00;2.05;;;0.57;;
22332;SDS011;11334;36.986;-121.936;2023-03-01T16:18:27;1.92;;;0.80;;
22332;SDS011;11334;36.986;-121.936;2023-03-01T16:20:53;2.97;;;0.80;;
22332;SDS011;11334;36.986;-121.936;2023-03-01T16:23:19;3.28;;;1.08;;
22332;SDS011;11334;36.986;-121.936;2023-03-01T16:25:46;0.80;;;0.60;;
22332;SDS011;11334;36.986;-121.936;2023-03-01T16:28:12;2.78;;;0.70;;
22332;SDS011;11334;36.986;-121.936;2023-03-01T16:30:39;3.30;;;0.98;;
22332;SDS011;11334;36.986;-121.936;2023-03-01T16:33:06;3.90;;;0.88;;
22332;SDS011;11334;36.986;-121.936;2023-03-01T16:35:33;1.42;;;0.60;;
22332;SDS011;11334;36.986;-121.936;2023-03-01T16:38:04;3.25;;;0.90;;
22332;SDS011;11334;36.986;-121.936;2023-03-01T16:40:30;0.88;;;0.60;;
22332;SDS011;11334;36.986;-121.936;2023-03-01T16:42:57;2.80;;;0.85;;
22332;SDS011;11334;36.986;-121.936;2023-03-01T16:45:28;1.73;;;0.57;;
22332;SDS011;11334;36.986;-121.936;2023-03-01T16:47:59;1.70;;;0.70;;
22332;SDS011;11334;36.986;-121.936;2023-03-01T16:50:25;1.70;;;0.95;;
22332;SDS011;11334;36.986;-121.936;2023-03-01T16:52:52;0.88;;;0.52;;